createdAt,value
2018-10-21T00:02:03.022Z,17.63
2018-10-21T00:04:31.099Z,17.57
2018-10-21T00:06:59.289Z,18.03
2018-10-21T00:09:29.081Z,17.80
2018-10-21T00:11:57.288Z,16.53
2018-10-21T00:14:25.481Z,16.10
2018-10-21T00:16:53.909Z,16.53
2018-10-21T00:19:22.032Z,16.50
2018-10-21T00:21:50.161Z,16.70
2018-10-21T00:24:18.245Z,17.03
2018-10-21T00:26:46.393Z,18.63
2018-10-21T00:29:14.491Z,17.60
2018-10-21T00:31:42.767Z,18.10
2018-10-21T00:34:10.970Z,17.40
2018-10-21T00:36:39.065Z,17.43
2018-10-21T00:39:08.805Z,17.30
2018-10-21T00:41:36.994Z,16.97
2018-10-21T00:44:05.088Z,17.20
2018-10-21T00:46:33.152Z,16.30
2018-10-21T00:49:01.245Z,17.47
2018-10-21T00:51:29.334Z,16.73
2018-10-21T00:53:57.398Z,18.40
2018-10-21T00:56:25.457Z,16.83
2018-10-21T00:58:53.509Z,17.00
2018-10-21T01:01:21.717Z,17.10
2018-10-21T01:03:49.968Z,16.87
2018-10-21T01:06:18.129Z,16.73
2018-10-21T01:08:46.193Z,19.67
2018-10-21T01:11:14.392Z,17.90
2018-10-21T01:13:42.449Z,17.90
2018-10-21T01:16:10.529Z,17.80
2018-10-21T01:18:38.596Z,18.63
2018-10-21T01:21:06.913Z,17.23
2018-10-21T01:23:35.177Z,17.93
2018-10-21T01:26:03.249Z,18.67
2018-10-21T01:28:31.517Z,18.47
2018-10-21T01:30:59.573Z,18.90
2018-10-21T01:33:27.756Z,17.20
2018-10-21T01:35:55.859Z,16.93
2018-10-21T01:38:23.991Z,17.90
2018-10-21T01:40:53.326Z,17.30
2018-10-21T01:43:24.561Z,17.90
2018-10-21T01:45:52.650Z,18.23
2018-10-21T01:48:21.971Z,18.80
2018-10-21T01:50:50.105Z,17.50
2018-10-21T01:53:18.977Z,17.53
2018-10-21T01:55:47.096Z,17.70
2018-10-21T01:58:15.372Z,18.93
2018-10-21T02:00:43.724Z,17.80
2018-10-21T02:03:11.901Z,17.77
2018-10-21T02:05:41.109Z,18.60
2018-10-21T02:08:09.221Z,17.93
2018-10-21T02:10:37.274Z,16.70
2018-10-21T02:13:05.468Z,18.97
2018-10-21T02:15:34.228Z,17.60
2018-10-21T02:18:02.811Z,16.60
2018-10-21T02:20:31.078Z,18.83
2018-10-21T02:22:59.360Z,18.23
2018-10-21T02:25:27.462Z,17.30
2018-10-21T02:27:56.012Z,17.13
2018-10-21T02:30:25.732Z,17.73
2018-10-21T02:32:54.762Z,17.47
2018-10-21T02:35:23.293Z,18.37
2018-10-21T02:37:51.803Z,17.60
2018-10-21T02:41:24.796Z,18.00
2018-10-21T02:43:52.937Z,16.77
2018-10-21T02:46:22.463Z,17.60
2018-10-21T02:48:51.876Z,17.60
2018-10-21T02:51:19.925Z,17.40
2018-10-21T02:53:48.100Z,19.00
2018-10-21T02:56:16.199Z,19.20
2018-10-21T02:58:44.262Z,17.27
2018-10-21T03:01:12.341Z,17.50
2018-10-21T03:03:40.754Z,17.20
2018-10-21T03:06:09.011Z,17.23
2018-10-21T03:08:37.897Z,16.43
2018-10-21T03:11:06.196Z,15.80
2018-10-21T03:13:34.318Z,18.07
2018-10-21T03:16:02.934Z,17.27
2018-10-21T03:18:31.201Z,17.03
2018-10-21T03:20:59.878Z,18.53
2018-10-21T03:23:28.158Z,16.20
2018-10-21T03:25:56.449Z,17.03
2018-10-21T03:28:24.609Z,18.33
2018-10-21T03:30:52.679Z,18.63
2018-10-21T03:33:21.206Z,17.00
2018-10-21T03:35:49.057Z,16.70
2018-10-21T03:38:17.334Z,16.80
2018-10-21T03:40:45.413Z,16.33
2018-10-21T03:43:13.503Z,18.07
2018-10-21T03:45:41.775Z,15.50
2018-10-21T03:48:10.044Z,16.47
2018-10-21T03:50:38.100Z,16.50
2018-10-21T03:53:06.196Z,15.10
2018-10-21T03:55:38.714Z,16.33
2018-10-21T03:58:06.863Z,14.80
2018-10-21T04:00:35.492Z,15.97
2018-10-21T04:03:03.871Z,16.30
2018-10-21T04:05:32.190Z,17.00
2018-10-21T04:08:00.293Z,16.83
2018-10-21T04:10:28.356Z,16.13
2018-10-21T04:12:56.593Z,16.03
2018-10-21T04:15:24.655Z,15.80
2018-10-21T04:17:53.156Z,16.40
2018-10-21T04:20:21.247Z,15.30
2018-10-21T04:22:51.652Z,17.37
2018-10-21T04:25:20.440Z,16.10
2018-10-21T04:27:49.122Z,15.57
2018-10-21T04:30:19.788Z,14.70
2018-10-21T04:32:49.203Z,16.73
2018-10-21T04:35:17.752Z,16.60
2018-10-21T04:38:26.178Z,15.87
2018-10-21T04:40:54.367Z,16.63
2018-10-21T04:43:22.472Z,17.37
2018-10-21T04:45:50.674Z,18.23
2018-10-21T04:48:18.812Z,17.10
2018-10-21T04:50:46.924Z,17.03
2018-10-21T04:53:15.208Z,17.13
2018-10-21T04:55:43.396Z,16.30
2018-10-21T04:58:11.532Z,17.40
2018-10-21T05:00:39.736Z,18.17
2018-10-21T05:03:08.048Z,17.10
2018-10-21T05:05:36.462Z,18.57
2018-10-21T05:08:04.537Z,19.80
2018-10-21T05:10:35.540Z,17.60
2018-10-21T05:13:04.420Z,18.60
2018-10-21T05:15:34.652Z,17.73
2018-10-21T05:18:03.656Z,18.20
2018-10-21T05:20:31.716Z,17.93
2018-10-21T05:22:59.818Z,18.33
2018-10-21T05:25:27.865Z,17.70
2018-10-21T05:27:55.942Z,19.13
2018-10-21T05:30:24.153Z,19.23
2018-10-21T05:32:52.297Z,16.13
2018-10-21T05:35:20.961Z,20.10
2018-10-21T05:37:49.369Z,16.87
2018-10-21T05:40:19.394Z,17.75
2018-10-21T05:42:48.155Z,17.17
2018-10-21T05:45:16.283Z,17.53
2018-10-21T05:47:44.645Z,18.47
2018-10-21T05:50:14.341Z,17.23
2018-10-21T05:52:42.800Z,18.00
2018-10-21T05:55:11.584Z,17.80
2018-10-21T05:57:40.264Z,17.57
2018-10-21T06:00:12.357Z,17.40
2018-10-21T06:02:41.231Z,17.47
2018-10-21T06:05:15.350Z,17.13
2018-10-21T06:07:43.594Z,18.70
2018-10-21T06:10:12.055Z,17.60
2018-10-21T06:12:40.840Z,17.20
2018-10-21T06:15:08.956Z,19.40
2018-10-21T06:17:37.244Z,18.17
2018-10-21T06:20:14.771Z,17.70
2018-10-21T06:22:45.392Z,19.33
2018-10-21T06:25:13.502Z,20.97
2018-10-21T06:27:41.664Z,20.60
2018-10-21T06:30:11.281Z,22.93
2018-10-21T06:32:39.557Z,23.17
2018-10-21T06:35:08.413Z,21.30
2018-10-21T06:37:36.667Z,21.80
2018-10-21T06:40:05.753Z,23.67
2018-10-21T06:42:34.109Z,24.70
2018-10-21T06:45:02.315Z,24.33
2018-10-21T06:47:30.707Z,27.80
2018-10-21T06:49:58.878Z,28.27
2018-10-21T06:52:27.385Z,29.13
2018-10-21T06:54:55.695Z,30.80
2018-10-21T06:57:23.865Z,28.47
2018-10-21T06:59:52.325Z,25.93
2018-10-21T07:02:20.405Z,29.87
2018-10-21T07:04:48.657Z,30.47
2018-10-21T07:07:17.058Z,32.10
2018-10-21T07:09:45.249Z,32.70
2018-10-21T07:12:13.505Z,31.93
2018-10-21T07:14:41.862Z,32.90
2018-10-21T07:17:10.049Z,33.30
2018-10-21T07:19:38.244Z,32.70
2018-10-21T07:22:06.439Z,32.23
2018-10-21T07:24:34.928Z,34.13
2018-10-21T07:27:03.228Z,35.33
2018-10-21T07:29:31.352Z,33.03
2018-10-21T07:31:59.581Z,35.33
2018-10-21T07:34:27.660Z,33.23
2018-10-21T07:36:56.372Z,34.70
2018-10-21T07:39:24.569Z,34.13
2018-10-21T07:41:52.883Z,34.07
2018-10-21T07:44:20.973Z,35.20
2018-10-21T07:46:49.036Z,32.97
2018-10-21T07:49:17.338Z,32.07
2018-10-21T07:51:45.572Z,31.03
2018-10-21T07:54:13.785Z,29.30
2018-10-21T07:56:41.969Z,32.20
2018-10-21T07:59:10.073Z,31.40
2018-10-21T08:01:38.354Z,31.50
2018-10-21T08:04:06.452Z,30.97
2018-10-21T08:06:40.543Z,32.97
2018-10-21T08:09:09.845Z,32.87
2018-10-21T08:11:38.094Z,33.17
2018-10-21T08:14:06.188Z,32.63
2018-10-21T08:16:34.553Z,31.63
2018-10-21T08:19:02.626Z,33.00
2018-10-21T08:21:30.812Z,33.43
2018-10-21T08:23:59.027Z,33.13
2018-10-21T08:26:27.450Z,34.50
2018-10-21T08:28:55.538Z,34.47
2018-10-21T08:31:23.734Z,34.87
2018-10-21T08:33:51.798Z,35.10
2018-10-21T08:36:19.881Z,34.93
2018-10-21T08:38:47.976Z,35.43
2018-10-21T08:41:16.072Z,35.30
2018-10-21T08:43:44.224Z,36.70
2018-10-21T08:46:12.370Z,36.10
2018-10-21T08:48:40.594Z,34.70
2018-10-21T08:51:08.713Z,32.57
2018-10-21T08:53:36.768Z,33.50
2018-10-21T08:56:05.032Z,33.87
2018-10-21T08:58:33.362Z,32.77
2018-10-21T09:01:01.513Z,29.80
2018-10-21T09:03:30.817Z,31.27
2018-10-21T09:05:58.898Z,30.67
2018-10-21T09:08:27.023Z,29.63
2018-10-21T09:10:55.203Z,28.13
2018-10-21T09:13:23.402Z,28.23
2018-10-21T09:15:51.477Z,28.20
2018-10-21T09:18:19.535Z,28.00
2018-10-21T09:20:47.611Z,27.73
2018-10-21T09:23:15.798Z,26.43
2018-10-21T09:25:43.878Z,28.30
2018-10-21T09:28:11.971Z,27.33
2018-10-21T09:30:40.250Z,26.93
2018-10-21T09:33:08.411Z,25.67
2018-10-21T09:35:36.703Z,26.30
2018-10-21T09:38:05.042Z,25.00
2018-10-21T09:40:33.147Z,27.00
2018-10-21T09:43:01.291Z,25.10
2018-10-21T09:45:29.508Z,25.83
2018-10-21T09:47:57.601Z,24.47
2018-10-21T09:50:25.711Z,24.30
2018-10-21T09:52:53.796Z,24.27
2018-10-21T09:55:22.730Z,26.00
2018-10-21T09:57:51.080Z,26.27
2018-10-21T10:00:24.521Z,23.70
2018-10-21T10:02:57.883Z,25.20
2018-10-21T10:05:26.054Z,24.13
2018-10-21T10:07:55.181Z,24.60
2018-10-21T10:10:23.955Z,24.50
2018-10-21T10:12:52.043Z,23.97
2018-10-21T10:15:20.333Z,23.73
2018-10-21T10:17:48.900Z,23.20
2018-10-21T10:20:17.174Z,22.90
2018-10-21T10:22:45.863Z,24.30
2018-10-21T10:25:14.045Z,22.20
2018-10-21T10:27:42.624Z,22.13
2018-10-21T10:30:12.205Z,22.20
2018-10-21T10:32:41.911Z,22.17
2018-10-21T10:35:11.110Z,23.07
2018-10-21T10:37:39.483Z,22.20
2018-10-21T10:40:08.480Z,19.93
2018-10-21T10:42:36.790Z,22.60
2018-10-21T10:45:05.173Z,23.33
2018-10-21T10:47:33.267Z,21.50
2018-10-21T10:50:01.459Z,21.80
2018-10-21T10:52:29.566Z,20.53
2018-10-21T10:54:57.706Z,20.67
2018-10-21T10:57:25.949Z,21.17
2018-10-21T10:59:54.160Z,21.33
2018-10-21T11:02:22.362Z,20.90
2018-10-21T11:04:50.460Z,21.50
2018-10-21T11:07:18.570Z,20.57
2018-10-21T11:09:46.667Z,20.43
2018-10-21T11:12:14.833Z,20.67
2018-10-21T11:14:42.919Z,21.47
2018-10-21T11:17:11.415Z,20.47
2018-10-21T11:19:39.516Z,19.00
2018-10-21T11:22:07.639Z,18.67
2018-10-21T11:24:41.204Z,17.50
2018-10-21T11:27:09.345Z,17.87
2018-10-21T11:29:37.462Z,16.60
2018-10-21T11:32:05.557Z,17.20
2018-10-21T11:34:33.644Z,17.33
2018-10-21T11:37:01.822Z,15.30
2018-10-21T11:39:30.158Z,13.67
2018-10-21T11:41:58.221Z,13.03
2018-10-21T11:44:26.403Z,12.97
2018-10-21T11:46:54.730Z,12.13
2018-10-21T11:49:22.829Z,11.50
2018-10-21T11:51:50.936Z,10.57
2018-10-21T11:54:19.076Z,10.60
2018-10-21T11:56:47.575Z,9.60
2018-10-21T11:59:15.681Z,11.30
2018-10-21T12:01:44.451Z,10.27
2018-10-21T12:04:12.592Z,10.37
2018-10-21T12:06:41.305Z,10.17
2018-10-21T12:09:10.587Z,13.40
2018-10-21T12:11:39.284Z,10.57
2018-10-21T12:14:07.986Z,11.00
2018-10-21T12:16:36.082Z,11.87
2018-10-21T12:19:04.649Z,11.00
2018-10-21T12:21:32.943Z,12.10
2018-10-21T12:24:01.158Z,10.40
2018-10-21T12:26:29.229Z,10.10
2018-10-21T12:28:57.418Z,9.40
2018-10-21T12:31:25.634Z,7.20
2018-10-21T12:33:53.844Z,6.20
2018-10-21T12:36:22.443Z,5.90
2018-10-21T12:38:50.552Z,6.33
2018-10-21T12:41:18.708Z,6.03
2018-10-21T12:43:46.776Z,4.93
2018-10-21T12:46:14.883Z,4.77
2018-10-21T12:48:43.164Z,4.10
2018-10-21T12:51:11.245Z,4.67
2018-10-21T12:53:39.441Z,5.00
2018-10-21T12:56:08.963Z,4.63
2018-10-21T12:58:37.642Z,4.40
2018-10-21T13:01:05.868Z,3.97
2018-10-21T13:03:34.163Z,3.20
2018-10-21T13:06:02.226Z,3.77
2018-10-21T13:08:30.342Z,3.23
2018-10-21T13:10:58.571Z,3.47
2018-10-21T13:13:26.658Z,3.30
2018-10-21T13:15:54.916Z,3.00
2018-10-21T13:18:23.213Z,4.00
2018-10-21T13:20:51.461Z,3.30
2018-10-21T13:23:19.529Z,3.07
2018-10-21T13:25:47.614Z,2.30
2018-10-21T13:28:15.730Z,2.50
2018-10-21T13:30:43.997Z,2.83
2018-10-21T13:33:12.138Z,2.90
2018-10-21T13:35:40.216Z,2.60
2018-10-21T13:38:08.481Z,2.80
2018-10-21T13:40:36.579Z,3.07
2018-10-21T13:43:05.157Z,2.23
2018-10-21T13:45:33.863Z,2.87
2018-10-21T13:48:02.204Z,3.03
2018-10-21T13:50:30.373Z,2.70
2018-10-21T13:52:58.541Z,2.27
2018-10-21T13:55:26.765Z,2.33
2018-10-21T13:57:54.875Z,2.37
2018-10-21T14:00:23.182Z,2.30
2018-10-21T14:02:51.459Z,2.63
2018-10-21T14:05:19.520Z,2.50
2018-10-21T14:07:47.712Z,2.40
2018-10-21T14:10:15.942Z,1.67
2018-10-21T14:12:44.137Z,2.17
2018-10-21T14:15:12.272Z,2.80
2018-10-21T14:17:40.516Z,2.23
2018-10-21T14:20:10.192Z,2.20
2018-10-21T14:22:38.418Z,3.20
2018-10-21T14:25:06.934Z,2.47
2018-10-21T14:27:35.370Z,2.23
2018-10-21T14:30:04.006Z,2.23
2018-10-21T14:32:32.274Z,2.20
2018-10-21T14:35:01.093Z,2.07
2018-10-21T14:37:29.216Z,2.40
2018-10-21T14:39:57.318Z,2.60
2018-10-21T14:42:25.434Z,1.80
2018-10-21T14:44:53.697Z,2.20
2018-10-21T14:47:22.022Z,2.13
2018-10-21T14:49:50.134Z,2.10
2018-10-21T14:52:18.242Z,2.20
2018-10-21T14:54:46.385Z,2.30
2018-10-21T14:57:14.478Z,1.80
2018-10-21T14:59:42.586Z,2.20
2018-10-21T15:02:10.779Z,2.13
2018-10-21T15:04:39.038Z,2.30
2018-10-21T15:07:07.393Z,2.27
2018-10-21T15:09:35.514Z,2.00
2018-10-21T15:12:04.339Z,2.20
2018-10-21T15:14:32.662Z,2.23
2018-10-21T15:17:00.736Z,2.30
2018-10-21T15:19:28.886Z,2.20
2018-10-21T15:21:56.955Z,2.27
2018-10-21T15:24:25.262Z,2.00
2018-10-21T15:26:53.445Z,2.33
2018-10-21T15:29:21.506Z,2.40
2018-10-21T15:31:49.699Z,2.10
2018-10-21T15:34:17.883Z,3.10
2018-10-21T15:36:46.190Z,2.67
2018-10-21T15:39:14.292Z,2.40
2018-10-21T15:41:42.415Z,2.37
2018-10-21T15:44:10.607Z,2.40
2018-10-21T15:46:38.925Z,2.00
2018-10-21T15:49:07.005Z,3.00
2018-10-21T15:51:35.153Z,2.07
2018-10-21T15:54:03.756Z,1.90
2018-10-21T15:56:31.909Z,2.03
2018-10-21T15:59:00.000Z,2.37
2018-10-21T16:01:28.127Z,2.17
2018-10-21T16:03:56.326Z,2.40
2018-10-21T16:06:24.705Z,2.20
2018-10-21T16:08:52.950Z,2.20
2018-10-21T16:11:21.082Z,2.73
2018-10-21T16:13:49.265Z,2.23
2018-10-21T16:16:17.664Z,2.17
2018-10-21T16:18:45.913Z,1.90
2018-10-21T16:21:14.190Z,1.93
2018-10-21T16:23:42.315Z,2.40
2018-10-21T16:26:10.451Z,2.73
2018-10-21T16:28:38.721Z,2.10
2018-10-21T16:31:06.810Z,2.13
2018-10-21T16:33:35.029Z,1.97
2018-10-21T16:36:03.234Z,2.47
2018-10-21T16:38:31.433Z,2.20
2018-10-21T16:40:59.810Z,2.10
2018-10-21T16:43:27.932Z,2.00
2018-10-21T16:45:56.205Z,2.03
2018-10-21T16:48:24.457Z,2.50
2018-10-21T16:50:52.657Z,1.80
2018-10-21T16:53:20.945Z,2.20
2018-10-21T16:55:49.166Z,2.30
2018-10-21T16:58:17.261Z,3.13
2018-10-21T17:00:45.671Z,3.70
2018-10-21T17:03:13.822Z,4.70
2018-10-21T17:05:42.360Z,3.60
2018-10-21T17:08:10.545Z,2.80
2018-10-21T17:10:39.046Z,2.87
2018-10-21T17:13:07.359Z,2.70
2018-10-21T17:15:35.617Z,2.90
2018-10-21T17:18:04.090Z,2.50
2018-10-21T17:20:32.176Z,3.03
2018-10-21T17:23:00.304Z,2.93
2018-10-21T17:25:28.415Z,3.30
2018-10-21T17:27:56.638Z,2.60
2018-10-21T17:30:24.984Z,3.13
2018-10-21T17:32:53.311Z,3.13
2018-10-21T17:35:21.407Z,2.60
2018-10-21T17:37:49.500Z,3.33
2018-10-21T17:40:17.728Z,3.00
2018-10-21T17:42:45.981Z,3.13
2018-10-21T17:45:15.133Z,3.20
2018-10-21T17:47:43.313Z,2.70
2018-10-21T17:50:13.312Z,2.83
2018-10-21T17:52:42.096Z,2.27
2018-10-21T17:55:10.269Z,3.03
2018-10-21T17:57:38.522Z,3.40
2018-10-21T18:00:08.141Z,3.30
2018-10-21T18:02:36.306Z,4.67
2018-10-21T18:05:05.374Z,4.40
2018-10-21T18:07:33.486Z,3.50
2018-10-21T18:10:01.719Z,3.80
2018-10-21T18:12:29.967Z,3.47
2018-10-21T18:14:58.861Z,3.30
2018-10-21T18:17:27.013Z,3.03
2018-10-21T18:19:55.266Z,3.47
2018-10-21T18:22:23.540Z,3.37
2018-10-21T18:24:51.765Z,3.30
2018-10-21T18:27:20.490Z,3.30
2018-10-21T18:29:48.656Z,3.20
2018-10-21T18:32:16.904Z,3.13
2018-10-21T18:34:45.515Z,3.53
2018-10-21T18:37:13.715Z,2.60
2018-10-21T18:39:42.024Z,3.17
2018-10-21T18:42:10.114Z,2.90
2018-10-21T18:44:38.303Z,2.87
2018-10-21T18:47:06.581Z,3.17
2018-10-21T18:49:35.216Z,3.70
2018-10-21T18:52:03.520Z,3.50
2018-10-21T18:54:32.045Z,3.40
2018-10-21T18:57:00.350Z,3.63
2018-10-21T18:59:28.568Z,3.57
2018-10-21T19:01:56.865Z,3.13
2018-10-21T19:04:24.970Z,4.27
2018-10-21T19:06:53.121Z,3.20
2018-10-21T19:09:21.335Z,3.83
2018-10-21T19:11:49.450Z,3.70
2018-10-21T19:14:17.851Z,3.60
2018-10-21T19:16:45.944Z,4.13
2018-10-21T19:19:14.197Z,3.80
2018-10-21T19:21:42.470Z,4.00
2018-10-21T19:24:10.657Z,4.30
2018-10-21T19:26:39.084Z,3.80
2018-10-21T19:29:07.248Z,4.30
2018-10-21T19:31:35.392Z,3.90
2018-10-21T19:34:03.708Z,4.33
2018-10-21T19:36:31.991Z,4.10
2018-10-21T19:39:00.246Z,3.67
2018-10-21T19:41:28.396Z,3.73
2018-10-21T19:43:56.551Z,4.40
2018-10-21T19:46:24.702Z,4.80
2018-10-21T19:48:52.838Z,4.73
2018-10-21T19:51:21.030Z,5.20
2018-10-21T19:53:49.164Z,4.80
2018-10-21T19:56:17.403Z,5.43
2018-10-21T19:58:45.717Z,4.77
2018-10-21T20:01:14.334Z,4.63
2018-10-21T20:03:42.691Z,4.30
2018-10-21T20:06:10.820Z,5.23
2018-10-21T20:08:39.016Z,5.10
2018-10-21T20:11:07.351Z,4.73
2018-10-21T20:13:35.489Z,5.33
2018-10-21T20:16:03.692Z,4.53
2018-10-21T20:18:32.128Z,5.53
2018-10-21T20:21:00.746Z,4.97
2018-10-21T20:23:28.977Z,5.27
2018-10-21T20:25:57.382Z,6.93
2018-10-21T20:28:25.601Z,5.00
2018-10-21T20:30:53.750Z,5.10
2018-10-21T20:33:22.021Z,5.07
2018-10-21T20:35:50.102Z,5.03
2018-10-21T20:38:18.294Z,5.13
2018-10-21T20:40:46.645Z,5.80
2018-10-21T20:43:15.269Z,5.23
2018-10-21T20:45:43.500Z,5.73
2018-10-21T20:48:12.234Z,5.83
2018-10-21T20:50:40.457Z,6.73
2018-10-21T20:53:09.194Z,6.67
2018-10-21T20:55:37.349Z,6.13
2018-10-21T20:58:05.946Z,6.03
2018-10-21T21:00:34.281Z,5.63
2018-10-21T21:03:02.592Z,7.77
2018-10-21T21:05:30.959Z,7.07
2018-10-21T21:07:59.075Z,6.90
2018-10-21T21:10:27.624Z,6.80
2018-10-21T21:12:55.818Z,7.63
2018-10-21T21:15:24.061Z,7.20
2018-10-21T21:17:52.194Z,6.90
2018-10-21T21:20:20.352Z,7.40
2018-10-21T21:22:48.489Z,7.50
2018-10-21T21:25:16.771Z,7.90
2018-10-21T21:27:44.862Z,7.20
2018-10-21T21:30:13.220Z,6.93
2018-10-21T21:32:41.488Z,6.97
2018-10-21T21:35:09.722Z,8.00
2018-10-21T21:37:38.351Z,7.37
2018-10-21T21:40:07.022Z,7.20
2018-10-21T21:42:35.331Z,7.97
2018-10-21T21:45:04.645Z,7.30
2018-10-21T21:47:32.874Z,7.37
2018-10-21T21:50:01.889Z,6.73
2018-10-21T21:52:31.080Z,8.17
2018-10-21T21:54:59.421Z,7.80
2018-10-21T21:57:27.549Z,7.23
2018-10-21T21:59:55.779Z,7.10
2018-10-21T22:02:24.347Z,6.53
2018-10-21T22:04:52.663Z,7.57
2018-10-21T22:07:21.356Z,7.60
2018-10-21T22:09:49.577Z,7.33
2018-10-21T22:12:17.802Z,7.57
2018-10-21T22:14:46.484Z,7.50
2018-10-21T22:17:14.937Z,7.70
2018-10-21T22:19:43.243Z,7.67
2018-10-21T22:22:11.648Z,7.73
2018-10-21T22:24:40.255Z,7.90
2018-10-21T22:27:08.520Z,7.50
2018-10-21T22:29:37.063Z,8.13
2018-10-21T22:32:05.361Z,7.73
2018-10-21T22:34:33.633Z,7.97
2018-10-21T22:37:02.090Z,7.30
2018-10-21T22:39:30.261Z,7.30
2018-10-21T22:41:58.644Z,8.00
2018-10-21T22:44:27.276Z,7.03
2018-10-21T22:46:55.473Z,7.90
2018-10-21T22:49:23.733Z,7.37
2018-10-21T22:51:51.988Z,8.90
2018-10-21T22:54:20.357Z,7.80
2018-10-21T22:56:48.599Z,7.40
2018-10-21T22:59:16.875Z,7.33
2018-10-21T23:01:45.195Z,7.20
2018-10-21T23:04:13.574Z,7.70
2018-10-21T23:06:42.112Z,8.73
2018-10-21T23:09:11.611Z,7.73
2018-10-21T23:11:40.494Z,7.97
2018-10-21T23:14:08.785Z,8.17
2018-10-21T23:16:37.041Z,7.90
2018-10-21T23:19:11.036Z,7.30
2018-10-21T23:21:39.690Z,7.20
2018-10-21T23:24:08.017Z,6.90
2018-10-21T23:26:36.803Z,8.30
2018-10-21T23:29:05.541Z,8.05
2018-10-21T23:31:33.667Z,8.60
2018-10-21T23:34:02.015Z,8.40
2018-10-21T23:36:30.685Z,7.83
2018-10-21T23:38:58.991Z,7.90
2018-10-21T23:41:27.497Z,8.03
2018-10-21T23:43:55.876Z,8.60
2018-10-21T23:46:24.015Z,7.20
2018-10-21T23:48:52.617Z,8.00
2018-10-21T23:51:20.977Z,7.37
2018-10-21T23:53:49.544Z,8.10
2018-10-21T23:56:17.976Z,7.27
2018-10-21T23:58:46.236Z,7.60
